Time;durP1;ratioP1;P1;durP2;ratioP2;P2;SDS_P1;SDS_P2;PMS_P1;PMS_P2;Temp;Humidity;BMP_temperature;BMP_pressure;BME280_temperature;BME280_humidity;BME280_pressure;Samples;Min_cycle;Max_cycle;Signal;HPM_P1;HPM_P2
2022/01/30 00:01:43;;;;;;;217.27;109.97;;;;;;;;;;5111009;28;20109;-77
2022/01/30 00:04:47;;;;;;;190.27;101.72;;;;;;;;;;5111004;28;20046;-77
2022/01/30 00:07:52;;;;;;;142.23;81.82;;;;;;;;;;5110731;28;20043;-77
2022/01/30 00:11:03;;;;;;;142.93;84.32;;;;;;;;;;5109981;28;20046;-77
2022/01/30 00:14:12;;;;;;;142.68;83.32;;;;;;;;;;5110537;28;20051;-77
2022/01/30 00:17:22;;;;;;;156.00;87.50;;;;;;;;;;5110894;28;20051;-76
2022/01/30 00:20:27;;;;;;;134.98;76.47;;;;;;;;;;5112766;28;20054;-77
2022/01/30 00:23:34;;;;;;;105.80;60.63;;;;;;;;;;5114431;28;20043;-77
2022/01/30 00:26:40;;;;;;;110.13;63.10;;;;;;;;;;5114448;28;20046;-77
2022/01/30 00:29:44;;;;;;;112.20;64.97;;;;;;;;;;5113669;28;20043;-77
2022/01/30 00:32:48;;;;;;;125.43;68.63;;;;;;;;;;5114011;28;20047;-77
2022/01/30 00:35:53;;;;;;;123.80;67.50;;;;;;;;;;5114256;28;20403;-77
2022/01/30 00:39:01;;;;;;;114.50;61.78;;;;;;;;;;5114229;28;20050;-77
2022/01/30 00:42:05;;;;;;;108.10;57.25;;;;;;;;;;5114389;28;20058;-77
2022/01/30 00:45:09;;;;;;;98.35;56.47;;;;;;;;;;5113011;28;20497;-77
2022/01/30 00:48:14;;;;;;;96.07;53.88;;;;;;;;;;5113428;28;20070;-77
2022/01/30 00:51:18;;;;;;;113.60;58.55;;;;;;;;;;5112770;28;20046;-77
2022/01/30 00:54:22;;;;;;;96.00;49.78;;;;;;;;;;5100689;28;20043;-77
2022/01/30 00:57:27;;;;;;;102.32;55.28;;;;;;;;;;5112878;28;20051;-77
2022/01/30 01:00:32;;;;;;;120.50;63.08;;;;;;;;;;5101271;28;20430;-77
2022/01/30 01:03:36;;;;;;;99.65;54.97;;;;;;;;;;5113083;28;20038;-77
2022/01/30 01:06:48;;;;;;;95.32;51.65;;;;;;;;;;5101113;28;20046;-77
2022/01/30 01:10:06;;;;;;;84.28;47.40;;;;;;;;;;5101048;28;20051;-77
2022/01/30 01:26:26;;;;;;;76.30;41.13;;;;;;;;;;5112416;28;20038;-77
2022/01/30 01:29:30;;;;;;;85.32;48.33;;;;;;;;;;5112670;28;20505;-77
2022/01/30 01:32:35;;;;;;;74.07;42.92;;;;;;;;;;5114559;28;20386;-77
2022/01/30 01:35:39;;;;;;;65.75;38.30;;;;;;;;;;5113056;28;20062;-77
2022/01/30 01:38:44;;;;;;;69.95;41.10;;;;;;;;;;5112733;28;20038;-77
2022/01/30 01:41:48;;;;;;;79.05;44.65;;;;;;;;;;5113001;28;20050;-77
2022/01/30 01:44:55;;;;;;;77.03;43.40;;;;;;;;;;5112109;28;20051;-77
2022/01/30 01:48:03;;;;;;;75.28;44.35;;;;;;;;;;5100096;28;20055;-77
2022/01/30 01:51:15;;;;;;;82.63;47.42;;;;;;;;;;5112464;28;20043;-77
2022/01/30 01:54:20;;;;;;;76.10;43.38;;;;;;;;;;5111842;28;20494;-77
2022/01/30 01:57:25;;;;;;;71.28;41.15;;;;;;;;;;5111633;28;20034;-78
2022/01/30 02:00:33;;;;;;;73.53;40.60;;;;;;;;;;5111901;28;20418;-78
2022/01/30 02:03:38;;;;;;;77.13;40.17;;;;;;;;;;5100163;28;20502;-78
2022/01/30 02:06:44;;;;;;;71.60;39.42;;;;;;;;;;5112535;28;20043;-78
2022/01/30 02:09:49;;;;;;;67.82;38.17;;;;;;;;;;5111563;28;20410;-78
2022/01/30 02:12:55;;;;;;;84.13;41.88;;;;;;;;;;5111785;28;20493;-78
2022/01/30 02:26:05;;;;;;;76.00;40.97;;;;;;;;;;5100004;28;20047;-77
2022/01/30 02:29:09;;;;;;;81.50;42.58;;;;;;;;;;5111453;28;20042;-77
2022/01/30 02:32:14;;;;;;;70.93;41.15;;;;;;;;;;5099839;28;20043;-77
2022/01/30 02:35:19;;;;;;;79.82;42.95;;;;;;;;;;5111783;28;20506;-77
2022/01/30 02:38:24;;;;;;;62.47;37.53;;;;;;;;;;5111461;28;20043;-77
2022/01/30 02:41:29;;;;;;;65.68;37.60;;;;;;;;;;5112117;28;20518;-77
2022/01/30 02:44:42;;;;;;;61.88;37.83;;;;;;;;;;5098480;28;20058;-77
2022/01/30 02:47:57;;;;;;;69.78;40.67;;;;;;;;;;5111090;28;20054;-77
2022/01/30 02:51:11;;;;;;;69.75;39.83;;;;;;;;;;5111220;28;20050;-77
2022/01/30 02:54:15;;;;;;;68.43;38.72;;;;;;;;;;5111158;28;20047;-77
2022/01/30 02:57:20;;;;;;;69.78;41.03;;;;;;;;;;5099316;28;20031;-77
2022/01/30 03:00:25;;;;;;;62.58;36.00;;;;;;;;;;5111095;28;20054;-77
2022/01/30 03:03:29;;;;;;;56.05;33.85;;;;;;;;;;5110952;28;20050;-77
2022/01/30 03:06:34;;;;;;;60.13;33.83;;;;;;;;;;5111032;28;20046;-77
2022/01/30 03:09:40;;;;;;;51.88;28.70;;;;;;;;;;5099813;28;20046;-77
2022/01/30 03:12:44;;;;;;;55.17;32.58;;;;;;;;;;5111290;28;20044;-77
2022/01/30 03:15:49;;;;;;;48.15;27.52;;;;;;;;;;5111113;28;20043;-77
2022/01/30 03:18:53;;;;;;;53.13;31.13;;;;;;;;;;5111439;28;20039;-77
2022/01/30 03:21:57;;;;;;;59.90;31.92;;;;;;;;;;5111001;28;20402;-77
2022/01/30 03:25:02;;;;;;;53.95;30.42;;;;;;;;;;5111206;28;20035;-77
2022/01/30 03:28:25;;;;;;;48.00;27.83;;;;;;;;;;5110611;28;20062;-77
2022/01/30 03:31:36;;;;;;;47.45;26.25;;;;;;;;;;5110506;28;20043;-77
2022/01/30 03:34:40;;;;;;;48.00;29.30;;;;;;;;;;5110308;28;20114;-77
2022/01/30 03:37:44;;;;;;;37.55;22.10;;;;;;;;;;5110517;28;20054;-77
2022/01/30 03:40:49;;;;;;;35.47;17.95;;;;;;;;;;5098503;28;20055;-77
2022/01/30 03:43:54;;;;;;;34.25;17.08;;;;;;;;;;5110393;28;20038;-77
2022/01/30 03:46:59;;;;;;;30.08;16.02;;;;;;;;;;5098370;28;20059;-77
2022/01/30 03:50:05;;;;;;;38.30;20.60;;;;;;;;;;5086923;28;20042;-77
2022/01/30 03:53:10;;;;;;;32.80;18.40;;;;;;;;;;5110540;28;20399;-77
2022/01/30 03:56:14;;;;;;;30.40;17.00;;;;;;;;;;5113735;28;20035;-77
2022/01/30 03:59:19;;;;;;;27.42;16.23;;;;;;;;;;5114300;28;20047;-77
2022/01/30 04:02:24;;;;;;;32.50;18.13;;;;;;;;;;5114203;28;20054;-77
2022/01/30 04:05:28;;;;;;;31.48;16.63;;;;;;;;;;5101933;28;20043;-77
2022/01/30 04:08:33;;;;;;;29.08;16.25;;;;;;;;;;5114682;28;20197;-77
2022/01/30 04:11:49;;;;;;;33.88;16.83;;;;;;;;;;5114161;28;20403;-77
2022/01/30 04:15:05;;;;;;;29.67;16.48;;;;;;;;;;5114092;28;20411;-77
2022/01/30 04:18:30;;;;;;;27.65;15.63;;;;;;;;;;5114948;28;20038;-77
2022/01/30 04:22:01;;;;;;;29.17;15.40;;;;;;;;;;5113673;28;20059;-77
2022/01/30 04:25:40;;;;;;;29.17;15.55;;;;;;;;;;5113476;28;20060;-77
2022/01/30 04:28:58;;;;;;;43.75;17.33;;;;;;;;;;5113862;28;20043;-77
2022/01/30 04:32:06;;;;;;;32.42;17.45;;;;;;;;;;5114450;28;20043;-77
2022/01/30 04:35:25;;;;;;;41.13;17.83;;;;;;;;;;5113426;28;20068;-77
2022/01/30 04:53:38;;;;;;;31.02;16.25;;;4.20;64.00;;;;;;5087278;28;19915;-77
2022/01/30 04:57:24;;;;;;;27.58;16.25;;;4.00;65.20;;;;;;5113194;28;20043;-77
2022/01/30 05:01:16;;;;;;;30.48;16.13;;;3.80;64.90;;;;;;5070835;28;20415;-77
2022/01/30 05:08:15;;;;;;;27.33;15.63;;;3.70;65.70;;;;;;5109965;28;20046;-77
2022/01/30 05:11:29;;;;;;;32.83;18.05;;;3.80;67.00;;;;;;5112750;28;20042;-77
2022/01/30 05:14:54;;;;;;;31.45;16.55;;;3.80;67.40;;;;;;5113456;28;20051;-77
2022/01/30 05:18:08;;;;;;;28.58;15.38;;;3.80;68.10;;;;;;5113418;28;20204;-77
2022/01/30 05:21:41;;;;;;;26.98;15.80;;;3.60;67.80;;;;;;5105852;28;20055;-77
2022/01/30 05:24:57;;;;;;;29.48;17.10;;;3.60;68.40;;;;;;5113417;28;20050;-77
2022/01/30 05:28:08;;;;;;;32.38;17.95;;;3.60;67.70;;;;;;5112621;28;20494;-77
2022/01/30 05:31:17;;;;;;;27.88;16.58;;;3.60;67.60;;;;;;5112446;28;20043;-77
2022/01/30 05:34:44;;;;;;;29.65;17.05;;;3.60;68.00;;;;;;5099450;28;20050;-77
2022/01/30 05:38:09;;;;;;;31.48;16.25;;;3.50;68.40;;;;;;5112472;28;20097;-77
2022/01/30 05:41:32;;;;;;;29.52;16.10;;;3.50;68.90;;;;;;5111910;28;20055;-77
2022/01/30 05:45:17;;;;;;;27.98;15.93;;;3.50;69.00;;;;;;5113057;28;20391;-77
2022/01/30 05:48:44;;;;;;;29.25;15.48;;;3.50;69.30;;;;;;5113230;28;20536;-77
2022/01/30 05:52:03;;;;;;;41.70;17.02;;;3.40;69.50;;;;;;5112173;28;20035;-77
2022/01/30 05:55:14;;;;;;;30.20;15.57;;;3.30;66.90;;;;;;5112085;28;20042;-77
2022/01/30 05:58:19;;;;;;;24.20;14.20;;;3.30;66.60;;;;;;5100010;28;20054;-77
2022/01/30 06:01:46;;;;;;;29.23;14.52;;;2.90;67.30;;;;;;5113085;28;20059;-77
2022/01/30 06:04:56;;;;;;;34.38;13.73;;;3.20;67.90;;;;;;5111880;28;20046;-77
2022/01/30 06:08:09;;;;;;;24.08;14.13;;;3.20;68.70;;;;;;5111563;28;20380;-77
2022/01/30 06:11:14;;;;;;;24.58;12.80;;;3.10;68.80;;;;;;5111325;28;20090;-77
2022/01/30 06:14:19;;;;;;;27.50;14.07;;;3.30;67.10;;;;;;5111448;28;20047;-77
2022/01/30 06:17:24;;;;;;;33.72;20.08;;;3.40;64.70;;;;;;5111549;28;20388;-77
2022/01/30 06:20:31;;;;;;;36.53;18.50;;;3.40;64.70;;;;;;5111884;28;20054;-77
2022/01/30 06:24:10;;;;;;;30.98;16.75;;;3.50;64.50;;;;;;5064266;28;20047;-78
2022/01/30 06:27:33;;;;;;;31.40;16.63;;;3.40;65.30;;;;;;5112342;28;20042;-77
2022/01/30 06:30:57;;;;;;;39.78;18.50;;;3.30;66.40;;;;;;5112275;28;20505;-77
2022/01/30 06:34:07;;;;;;;32.83;16.52;;;3.30;67.20;;;;;;5111868;28;20238;-77
2022/01/30 06:37:37;;;;;;;29.25;14.98;;;3.30;66.80;;;;;;5106505;28;20049;-77
2022/01/30 06:40:52;;;;;;;38.88;18.88;;;3.30;67.80;;;;;;5111173;28;20394;-77
2022/01/30 06:44:15;;;;;;;40.35;17.73;;;3.20;68.10;;;;;;5111993;28;20042;-77
2022/01/30 06:47:43;;;;;;;28.92;15.27;;;3.30;66.90;;;;;;5101145;28;20047;-73
2022/01/30 06:51:06;;;;;;;31.50;16.75;;;3.30;67.50;;;;;;5111700;28;20038;-73
2022/01/30 06:54:39;;;;;;;38.72;18.35;;;3.40;65.20;;;;;;5084734;28;20062;-73
2022/01/30 06:58:22;;;;;;;38.38;19.95;;;3.50;65.20;;;;;;5068968;28;20043;-73
2022/01/30 07:01:58;;;;;;;43.00;17.02;;;3.70;65.30;;;;;;5053411;28;20055;-73
2022/01/30 07:05:23;;;;;;;37.42;17.65;;;3.90;67.90;;;;;;5111969;28;20142;-73
2022/01/30 07:08:51;;;;;;;33.65;18.30;;;4.00;67.90;;;;;;5111726;28;20042;-74
2022/01/30 07:11:55;;;;;;;32.45;18.67;;;4.00;68.70;;;;;;5111714;28;20537;-74
2022/01/30 07:14:59;;;;;;;37.90;18.35;;;4.00;68.20;;;;;;5111562;28;20047;-74
2022/01/30 07:18:04;;;;;;;37.38;19.65;;;3.90;67.70;;;;;;5111506;28;20047;-74
2022/01/30 07:21:09;;;;;;;39.15;19.70;;;4.10;67.30;;;;;;5111341;28;20058;-74
2022/01/30 07:24:13;;;;;;;37.95;20.17;;;4.30;66.20;;;;;;5110632;28;20046;-75
2022/01/30 07:27:17;;;;;;;34.67;20.85;;;4.60;67.50;;;;;;5111539;28;20046;-75
2022/01/30 07:30:21;;;;;;;45.13;21.73;;;4.90;66.80;;;;;;5113487;28;20046;-75
2022/01/30 07:33:27;;;;;;;41.42;21.60;;;5.20;65.70;;;;;;5115544;28;20042;-75
2022/01/30 07:36:35;;;;;;;44.67;23.92;;;5.50;65.00;;;;;;5115586;28;20055;-75
2022/01/30 07:39:39;;;;;;;61.05;28.60;;;5.70;63.40;;;;;;5115453;28;20505;-75
2022/01/30 07:42:43;;;;;;;53.75;27.70;;;5.90;63.20;;;;;;5115387;28;20054;-75
2022/01/30 07:45:52;;;;;;;58.55;26.25;;;6.10;62.30;;;;;;5114250;28;20038;-75
2022/01/30 07:48:56;;;;;;;42.88;23.00;;;6.10;61.30;;;;;;5115582;28;20055;-75
2022/01/30 07:52:00;;;;;;;41.08;20.08;;;6.10;61.20;;;;;;5115404;28;20038;-75
2022/01/30 07:55:05;;;;;;;38.28;21.67;;;6.00;62.30;;;;;;5115126;28;20038;-75
2022/01/30 07:58:10;;;;;;;38.17;20.73;;;6.00;62.40;;;;;;5114330;28;20105;-75
2022/01/30 08:01:14;;;;;;;33.03;19.52;;;6.00;62.80;;;;;;5115159;28;20403;-75
2022/01/30 08:04:18;;;;;;;33.45;18.48;;;6.10;61.80;;;;;;5114330;28;20054;-75
2022/01/30 08:07:23;;;;;;;31.40;17.77;;;6.00;62.00;;;;;;5115046;28;20046;-75
2022/01/30 08:10:26;;;;;;;30.63;17.70;;;6.00;62.10;;;;;;5115114;28;20046;-75
2022/01/30 08:13:30;;;;;;;29.13;17.80;;;6.10;61.30;;;;;;5114807;28;20047;-75
2022/01/30 08:16:34;;;;;;;29.02;17.90;;;6.40;61.20;;;;;;5115039;28;20039;-75
2022/01/30 08:19:38;;;;;;;33.97;20.05;;;6.50;60.80;;;;;;5115224;28;20046;-75
2022/01/30 08:22:50;;;;;;;57.65;27.33;;;6.70;60.80;;;;;;5114005;28;20410;-74
2022/01/30 08:25:54;;;;;;;66.53;35.53;;;6.80;61.00;;;;;;5115360;28;20387;-75
2022/01/30 08:28:58;;;;;;;37.15;23.15;;;7.00;60.80;;;;;;5115190;28;20038;-75
2022/01/30 08:32:04;;;;;;;32.42;20.08;;;7.10;59.40;;;;;;5114646;28;20046;-75
2022/01/30 08:35:10;;;;;;;30.90;17.77;;;7.40;59.10;;;;;;5113795;28;20050;-75
2022/01/30 08:38:17;;;;;;;28.30;14.82;;;7.80;58.50;;;;;;5114680;28;20043;-75
2022/01/30 08:41:21;;;;;;;25.60;15.05;;;7.90;57.60;;;;;;5114111;28;20054;-75
2022/01/30 08:44:26;;;;;;;30.02;15.13;;;8.10;57.80;;;;;;5114186;28;20509;-75
2022/01/30 08:47:29;;;;;;;25.10;15.38;;;8.40;57.60;;;;;;5113993;28;20114;-75
2022/01/30 08:50:34;;;;;;;33.03;15.07;;;8.70;56.80;;;;;;5113279;28;20043;-75
2022/01/30 08:53:38;;;;;;;26.92;16.40;;;9.00;56.80;;;;;;5114049;28;20055;-75
2022/01/30 08:56:42;;;;;;;29.65;16.40;;;9.30;56.20;;;;;;5101358;28;20042;-75
2022/01/30 08:59:46;;;;;;;22.65;14.63;;;9.50;56.40;;;;;;5113071;28;20042;-75
2022/01/30 09:02:51;;;;;;;21.33;13.77;;;9.70;56.20;;;;;;5113990;28;20059;-75
2022/01/30 09:05:55;;;;;;;25.15;15.10;;;9.90;55.30;;;;;;5113837;28;20402;-75
2022/01/30 09:09:02;;;;;;;32.30;19.30;;;10.20;55.30;;;;;;5113673;28;20039;-75
2022/01/30 09:12:06;;;;;;;32.10;19.80;;;10.40;54.40;;;;;;5113932;28;20056;-75
2022/01/30 09:15:13;;;;;;;34.00;19.42;;;10.70;53.80;;;;;;5113589;28;20058;-75
2022/01/30 09:18:18;;;;;;;34.97;19.70;;;10.90;53.90;;;;;;5113554;28;20136;-75
2022/01/30 09:21:21;;;;;;;37.38;21.10;;;11.20;53.50;;;;;;5113429;28;20055;-75
2022/01/30 09:24:25;;;;;;;45.85;22.25;;;11.40;52.50;;;;;;5113400;28;20047;-75
2022/01/30 09:27:29;;;;;;;46.22;23.98;;;11.60;51.80;;;;;;5113492;28;20043;-75
2022/01/30 09:30:34;;;;;;;40.45;22.42;;;11.90;51.60;;;;;;5113371;28;20051;-75
2022/01/30 09:33:39;;;;;;;31.27;17.05;;;12.10;51.60;;;;;;5112312;28;20058;-75
2022/01/30 09:36:43;;;;;;;23.55;13.45;;;12.30;50.60;;;;;;5113444;28;20383;-75
2022/01/30 09:39:47;;;;;;;22.40;12.57;;;12.50;49.70;;;;;;5113136;28;20038;-75
2022/01/30 09:42:52;;;;;;;25.40;13.65;;;12.60;49.30;;;;;;5112963;28;20517;-75
2022/01/30 09:45:58;;;;;;;17.83;11.55;;;12.70;49.40;;;;;;5112918;28;20043;-75
2022/01/30 09:49:03;;;;;;;18.73;10.23;;;12.70;49.10;;;;;;5112021;28;20047;-75
2022/01/30 09:52:08;;;;;;;15.13;9.60;;;12.80;49.20;;;;;;5112503;28;20043;-75
2022/01/30 09:55:12;;;;;;;16.50;10.15;;;13.00;49.20;;;;;;5112530;28;20054;-75
2022/01/30 09:58:17;;;;;;;14.57;9.25;;;13.10;49.70;;;;;;5112740;28;20050;-75
2022/01/30 10:01:21;;;;;;;11.68;8.63;;;13.30;48.90;;;;;;5111681;28;20408;-75
2022/01/30 10:04:25;;;;;;;13.95;8.23;;;13.50;48.60;;;;;;5112593;28;20042;-75
2022/01/30 10:07:50;;;;;;;14.50;9.10;;;13.60;48.60;;;;;;5112661;28;20046;-75
2022/01/30 10:11:26;;;;;;;14.27;8.73;;;13.70;48.70;;;;;;5111860;28;20051;-75
2022/01/30 10:14:24;;;;;;;11.70;7.50;;;13.90;47.90;;;;;;5112396;28;20650;-75
2022/01/30 10:17:48;;;;;;;11.10;7.13;;;14.00;48.30;;;;;;5112584;28;20046;-75
2022/01/30 10:20:53;;;;;;;13.00;7.55;;;14.20;48.20;;;;;;5112483;28;20043;-75
2022/01/30 10:23:57;;;;;;;12.05;7.13;;;14.30;47.80;;;;;;5112128;28;20039;-75
2022/01/30 10:27:27;;;;;;;12.25;7.30;;;14.30;47.90;;;;;;5112264;28;20481;-75
2022/01/30 10:30:42;;;;;;;12.05;8.60;;;14.50;49.00;;;;;;5111344;28;20043;-75
2022/01/30 10:33:51;;;;;;;15.60;9.40;;;14.70;49.30;;;;;;5112199;28;20043;-75
2022/01/30 10:37:31;;;;;;;14.57;9.48;;;14.80;48.50;;;;;;5111476;28;20482;-76
2022/01/30 10:40:38;;;;;;;13.38;8.50;;;15.00;48.60;;;;;;5052579;27;20116;-74
2022/01/30 10:44:06;;;;;;;13.02;8.60;;;15.00;48.50;;;;;;5112160;28;20058;-75
2022/01/30 10:47:09;;;;;;;11.63;7.68;;;15.00;52.20;;;;;;5111795;28;20054;-75
2022/01/30 10:50:19;;;;;;;20.77;10.82;;;15.10;55.20;;;;;;5111640;28;20046;-76
2022/01/30 10:53:25;;;;;;;13.77;6.43;;;15.20;57.60;;;;;;5111889;28;20387;-75
2022/01/30 10:56:30;;;;;;;11.18;6.47;;;15.20;58.10;;;;;;5111870;28;20043;-76
2022/01/30 10:59:41;;;;;;;10.30;6.25;;;15.20;57.90;;;;;;5110936;28;20394;-76
2022/01/30 11:02:47;;;;;;;13.48;7.05;;;15.30;58.30;;;;;;5111401;28;20054;-75
2022/01/30 11:05:59;;;;;;;10.73;6.82;;;15.30;59.10;;;;;;5111391;28;20645;-75
2022/01/30 11:09:10;;;;;;;12.20;6.80;;;15.30;58.90;;;;;;5111899;28;20051;-76
2022/01/30 11:12:15;;;;;;;12.32;7.80;;;15.40;58.40;;;;;;5111507;28;20035;-75
2022/01/30 11:18:34;;;;;;;17.27;8.93;;;15.30;59.00;;;;;;5111408;28;20047;-75
2022/01/30 11:21:40;;;;;;;12.68;8.00;;;15.20;59.50;;;;;;5111526;28;20631;-75
2022/01/30 11:25:00;;;;;;;12.15;7.90;;;15.10;59.50;;;;;;5110294;28;20034;-75
2022/01/30 11:28:06;;;;;;;17.63;9.77;;;15.00;59.80;;;;;;5111616;28;20062;-75
2022/01/30 11:31:11;;;;;;;14.40;7.65;;;15.00;61.30;;;;;;5111568;28;20054;-75
2022/01/30 11:34:16;;;;;;;11.90;6.75;;;15.00;62.50;;;;;;5111215;28;20387;-76
2022/01/30 11:37:23;;;;;;;13.48;6.80;;;14.90;63.80;;;;;;5110604;28;20043;-75
2022/01/30 11:40:27;;;;;;;14.52;6.35;;;14.90;64.40;;;;;;5111386;28;20047;-76
2022/01/30 11:43:31;;;;;;;19.45;7.43;;;14.70;65.00;;;;;;5110895;28;20502;-76
2022/01/30 11:46:35;;;;;;;15.93;7.32;;;14.50;66.10;;;;;;5111231;28;20070;-75
2022/01/30 11:49:41;;;;;;;11.60;5.85;;;14.50;67.40;;;;;;5111230;28;20047;-75
2022/01/30 11:52:46;;;;;;;12.18;6.55;;;14.40;68.20;;;;;;5111041;28;20043;-75
2022/01/30 11:55:59;;;;;;;20.75;6.47;;;14.40;68.60;;;;;;5111164;28;20117;-75
2022/01/30 11:59:06;;;;;;;11.88;6.20;;;14.30;68.20;;;;;;5111332;28;20121;-74
2022/01/30 12:02:28;;;;;;;23.92;7.57;;;14.30;68.60;;;;;;5110894;28;20403;-75
2022/01/30 12:05:36;;;;;;;11.32;5.88;;;14.30;69.40;;;;;;5110989;28;20522;-75
2022/01/30 12:08:47;;;;;;;13.73;6.97;;;14.30;69.40;;;;;;5110854;28;20043;-76
2022/01/30 12:11:52;;;;;;;12.05;6.43;;;14.30;69.80;;;;;;5110935;28;20051;-75
2022/01/30 12:14:57;;;;;;;13.05;6.63;;;14.30;70.20;;;;;;5111389;28;20039;-75
2022/01/30 12:18:01;;;;;;;15.77;6.38;;;14.30;71.10;;;;;;5114774;28;20051;-74
2022/01/30 12:21:11;;;;;;;19.60;9.18;;;14.30;70.70;;;;;;5114511;28;20039;-74
2022/01/30 12:24:26;;;;;;;18.23;8.23;;;14.20;70.60;;;;;;5114840;28;20047;-73
2022/01/30 12:27:50;;;;;;;15.02;7.10;;;14.30;70.90;;;;;;5114513;28;20497;-75
2022/01/30 12:30:54;;;;;;;20.85;8.02;;;14.30;71.70;;;;;;5114871;28;20043;-75
2022/01/30 12:34:02;;;;;;;20.33;9.25;;;14.10;71.90;;;;;;5114194;28;20418;-74
2022/01/30 12:37:08;;;;;;;15.55;7.53;;;14.00;72.50;;;;;;5114521;28;20042;-76
2022/01/30 12:40:18;;;;;;;26.75;13.07;;;14.00;73.10;;;;;;5114512;28;20054;-75
2022/01/30 12:43:31;;;;;;;49.63;27.50;;;13.90;73.30;;;;;;5113843;28;20058;-76
2022/01/30 12:46:36;;;;;;;28.92;16.60;;;14.00;73.50;;;;;;5114239;28;20051;-75
2022/01/30 12:49:48;;;;;;;18.30;10.52;;;14.00;73.80;;;;;;5114420;28;20055;-76
2022/01/30 12:52:53;;;;;;;16.00;8.45;;;14.00;74.20;;;;;;5114210;28;20047;-75
2022/01/30 12:55:59;;;;;;;19.30;9.43;;;14.00;74.40;;;;;;5114347;28;20050;-75
2022/01/30 12:59:08;;;;;;;20.42;10.52;;;14.00;74.30;;;;;;5114303;28;20039;-75
2022/01/30 13:02:13;;;;;;;18.83;11.18;;;13.90;74.90;;;;;;5114110;28;20074;-75
2022/01/30 13:05:17;;;;;;;22.35;12.90;;;14.00;74.70;;;;;;5113028;28;20047;-76
2022/01/30 13:08:21;;;;;;;17.58;9.30;;;14.00;74.70;;;;;;5113005;28;20042;-73
2022/01/30 13:11:25;;;;;;;17.50;8.45;;;14.00;75.80;;;;;;5113975;28;20047;-75
2022/01/30 13:14:37;;;;;;;21.73;10.65;;;14.00;76.30;;;;;;5113068;28;20557;-76
2022/01/30 13:17:42;;;;;;;35.83;19.60;;;14.00;76.60;;;;;;5113484;28;20058;-76
2022/01/30 13:20:46;;;;;;;50.08;29.00;;;14.10;76.70;;;;;;5113882;28;20042;-76
2022/01/30 13:23:50;;;;;;;31.83;18.08;;;14.00;76.80;;;;;;5113452;28;20058;-75
2022/01/30 13:27:04;;;;;;;23.60;11.60;;;14.00;77.20;;;;;;5113053;28;20062;-75
2022/01/30 13:30:09;;;;;;;20.45;10.98;;;14.00;77.30;;;;;;5113476;28;20058;-75
2022/01/30 13:33:18;;;;;;;17.85;9.18;;;14.00;77.60;;;;;;5113228;28;20043;-75
2022/01/30 13:36:26;;;;;;;19.58;7.95;;;14.00;78.00;;;;;;5113513;28;20513;-77
2022/01/30 13:39:40;;;;;;;13.13;7.72;;;14.00;78.30;;;;;;5113493;28;20039;-75
2022/01/30 13:42:51;;;;;;;21.05;12.20;;;14.00;78.60;;;;;;5111277;28;20054;-76
2022/01/30 13:49:18;;;;;;;13.85;6.80;;;13.80;79.30;;;;;;5070147;28;19920;-74
2022/01/30 13:52:30;;;;;;;16.10;8.75;;;13.80;79.50;;;;;;5069525;28;20511;-74
2022/01/30 13:55:37;;;;;;;14.30;7.60;;;13.80;79.70;;;;;;5071368;28;20044;-74
2022/01/30 13:58:41;;;;;;;11.38;6.70;;;13.80;80.30;;;;;;5072028;28;20038;-74
2022/01/30 14:01:57;;;;;;;23.40;9.15;;;13.80;80.60;;;;;;5072315;28;20078;-75
2022/01/30 14:05:25;;;;;;;19.33;6.80;;;13.80;81.30;;;;;;5072102;28;20391;-75
2022/01/30 14:08:29;;;;;;;12.63;6.20;;;13.80;82.10;;;;;;5072250;28;20380;-75
2022/01/30 14:11:38;;;;;;;15.52;6.18;;;13.70;82.50;;;;;;5071873;28;20056;-74
2022/01/30 14:14:42;;;;;;;16.92;7.68;;;13.70;83.30;;;;;;5071838;28;20039;-74
2022/01/30 14:18:01;;;;;;;22.25;9.88;;;13.60;83.40;;;;;;5071905;28;20400;-74
2022/01/30 14:21:15;;;;;;;26.33;9.18;;;13.60;83.80;;;;;;5071768;28;20392;-74
2022/01/30 14:24:21;;;;;;;21.92;7.90;;;13.50;83.90;;;;;;5071869;28;20622;-75
2022/01/30 14:27:26;;;;;;;22.35;8.07;;;13.50;84.10;;;;;;5071803;28;20043;-74
2022/01/30 14:30:40;;;;;;;16.63;8.32;;;13.40;84.00;;;;;;5071846;28;20213;-75
2022/01/30 14:33:44;;;;;;;14.50;6.30;;;13.40;84.20;;;;;;5071849;28;20043;-74
2022/01/30 14:36:49;;;;;;;17.70;7.47;;;13.30;84.60;;;;;;5071779;28;20056;-74
2022/01/30 14:39:59;;;;;;;13.98;7.53;;;13.30;85.00;;;;;;5071617;28;20031;-75
2022/01/30 14:43:08;;;;;;;21.55;9.63;;;13.30;85.50;;;;;;5071199;28;20051;-74
2022/01/30 14:46:12;;;;;;;21.08;9.75;;;13.20;85.90;;;;;;5071650;28;20400;-75
2022/01/30 14:49:17;;;;;;;15.98;9.30;;;13.20;86.20;;;;;;5071708;28;20369;-75
2022/01/30 14:52:21;;;;;;;12.73;7.20;;;13.20;86.50;;;;;;5071510;28;20044;-74
2022/01/30 14:55:26;;;;;;;15.73;6.65;;;13.20;86.80;;;;;;5071307;28;20049;-74
2022/01/30 14:58:30;;;;;;;15.48;7.40;;;13.20;87.00;;;;;;5071421;28;20040;-74
2022/01/30 15:01:34;;;;;;;15.05;6.45;;;13.20;87.60;;;;;;5070976;28;20047;-74
2022/01/30 15:04:38;;;;;;;20.05;8.07;;;13.10;88.00;;;;;;5071379;28;20055;-74
2022/01/30 15:07:42;;;;;;;20.25;9.05;;;13.20;88.60;;;;;;5071119;28;20039;-74
2022/01/30 15:10:46;;;;;;;18.45;8.77;;;13.10;89.20;;;;;;5070971;28;20047;-74
2022/01/30 15:13:50;;;;;;;14.40;7.28;;;13.10;89.70;;;;;;5071184;28;20051;-74
2022/01/30 15:16:56;;;;;;;15.63;7.00;;;13.10;90.00;;;;;;5071051;28;20044;-74
2022/01/30 15:20:04;;;;;;;10.38;5.90;;;13.10;90.10;;;;;;5070388;28;20044;-74
2022/01/30 15:23:08;;;;;;;16.38;7.00;;;13.10;90.20;;;;;;5070605;28;20123;-74
2022/01/30 15:26:12;;;;;;;18.30;6.68;;;13.00;90.30;;;;;;5070961;28;20411;-74
2022/01/30 15:29:16;;;;;;;18.17;6.88;;;13.00;90.30;;;;;;5071060;28;20495;-74
2022/01/30 15:32:21;;;;;;;16.33;6.78;;;13.10;90.40;;;;;;5070774;28;20039;-74
2022/01/30 15:35:27;;;;;;;16.25;7.75;;;13.00;90.50;;;;;;5070590;28;20051;-74
2022/01/30 15:38:31;;;;;;;15.70;7.13;;;13.00;90.50;;;;;;5071019;28;20053;-74
2022/01/30 15:41:35;;;;;;;14.55;7.95;;;13.00;90.60;;;;;;5070563;28;20052;-74
2022/01/30 15:51:17;;;;;;;30.58;15.20;;;13.00;90.90;;;;;;5110616;28;20051;-75
2022/01/30 15:54:22;;;;;;;26.15;13.38;;;12.90;90.90;;;;;;5114405;28;20391;-75
2022/01/30 15:57:27;;;;;;;24.85;12.65;;;12.90;91.10;;;;;;5113279;28;20051;-73
2022/01/30 16:00:31;;;;;;;27.98;14.77;;;12.90;91.20;;;;;;5113347;28;20050;-75
2022/01/30 16:03:35;;;;;;;32.13;13.82;;;12.90;91.40;;;;;;5114022;28;20054;-75
2022/01/30 16:06:43;;;;;;;26.13;11.98;;;12.80;91.50;;;;;;5114179;28;20043;-72
2022/01/30 16:09:49;;;;;;;20.63;9.88;;;12.80;91.70;;;;;;5101992;28;20403;-75
2022/01/30 16:16:03;;;;;;;24.20;12.02;;;12.80;92.00;;;;;;5115178;28;20458;-75
2022/01/30 16:19:08;;;;;;;24.77;10.40;;;12.80;92.10;;;;;;5114935;28;20034;-74
2022/01/30 16:22:11;;;;;;;28.42;11.27;;;12.70;92.30;;;;;;5114772;28;20395;-74
2022/01/30 16:25:16;;;;;;;16.98;10.20;;;12.70;92.30;;;;;;5114687;28;20394;-74
2022/01/30 16:28:20;;;;;;;21.48;11.00;;;12.70;92.40;;;;;;5113934;28;20046;-74
2022/01/30 16:31:25;;;;;;;18.75;10.85;;;12.70;92.50;;;;;;5114372;28;20043;-74
2022/01/30 16:34:30;;;;;;;30.02;10.95;;;12.70;92.70;;;;;;5114677;28;20050;-74
2022/01/30 16:37:34;;;;;;;19.27;9.00;;;12.70;92.70;;;;;;5114478;28;20047;-74
2022/01/30 16:40:40;;;;;;;17.90;8.25;;;12.70;92.80;;;;;;5114179;28;20071;-74
2022/01/30 16:43:48;;;;;;;25.05;10.65;;;12.70;92.90;;;;;;5113944;28;20055;-77
2022/01/30 16:50:00;;;;;;;27.15;10.23;;;12.60;93.20;;;;;;5114023;28;20418;-79
2022/01/30 16:53:04;;;;;;;21.05;9.23;;;12.60;93.30;;;;;;5114301;28;20502;-79
2022/01/30 16:56:08;;;;;;;20.58;10.45;;;12.60;93.30;;;;;;5113391;28;20043;-78
2022/01/30 16:59:13;;;;;;;29.70;11.82;;;12.60;93.30;;;;;;5112967;28;20043;-78
2022/01/30 17:02:17;;;;;;;26.30;12.43;;;12.50;93.40;;;;;;5112520;28;20055;-78
2022/01/30 17:05:21;;;;;;;35.63;15.13;;;12.50;93.40;;;;;;5113363;28;20058;-78
2022/01/30 17:08:27;;;;;;;40.42;15.82;;;12.60;93.50;;;;;;5113929;28;20050;-78
2022/01/30 17:11:37;;;;;;;46.80;15.68;;;12.60;93.50;;;;;;5112892;28;20490;-78
2022/01/30 17:14:43;;;;;;;38.13;18.25;;;12.50;93.60;;;;;;5113781;28;20565;-78
2022/01/30 17:17:46;;;;;;;39.08;18.25;;;12.50;93.70;;;;;;5113715;28;20062;-78
2022/01/30 17:20:51;;;;;;;44.80;19.63;;;12.50;93.70;;;;;;5113524;28;20078;-77
2022/01/30 17:23:55;;;;;;;35.55;18.77;;;12.40;93.80;;;;;;5113414;28;20055;-78
2022/01/30 17:26:59;;;;;;;37.72;17.90;;;12.40;93.90;;;;;;5113595;28;20077;-77
2022/01/30 17:30:04;;;;;;;36.13;18.73;;;12.50;93.90;;;;;;5112591;28;20396;-77
2022/01/30 17:33:08;;;;;;;38.35;18.85;;;12.40;93.90;;;;;;5113123;28;20046;-77
2022/01/30 17:36:12;;;;;;;33.40;16.75;;;12.40;94.00;;;;;;5113191;28;20368;-79
2022/01/30 17:39:17;;;;;;;31.40;14.02;;;12.40;94.10;;;;;;5113333;28;20466;-77